Latest Weather Observations for Wattamolla

IDN60901

Issued at 1:41 pm EST Wednesday 22 April 2015 (issued every 10 minutes, with the page automatically refreshed every 10 minutes)

About weather observations | Map of Sydney area stations | Latest observations for Sydney area | Other Formats
Station Details ID: 066208 Name: WATTAMOLLA AWS Lat: -34.14 Lon: 151.12 Height: 44.0 m
Data from the previous 72 hours. | See also: Recent months for locations in New South Wales
Date/Time
EST
Tmp

°C
App
Tmp
°C
Dew
Point
°C
Rel
Hum
%
Delta-T

°C
Wind Press
QNH
hPa
Press
MSL
hPa
Rain
since
9 am
mm
Dir
 
Spd
km/h
Gust
km/h
Spd
kts
Gust
kts
22/01:30pm - - - - - S 67 82 36 44 - - -
22/01:00pm - - - - - S 57 78 31 42 - - -
22/12:30pm - - - - - S 56 74 30 40 - - -
22/12:01pm - - - - - S 56 87 30 47 - - -
22/12:00pm - - - - - S 54 87 29 47 - - -
22/11:58am - - - - - S 46 87 25 47 - - -
22/11:48am - - - - - S 63 83 34 45 - - -
22/11:30am - - - - - S 70 93 38 50 - - -
22/11:05am - - - - - S 76 95 41 51 - - -
22/11:00am - - - - - S 78 95 42 51 - - -
22/10:40am - - - - - S 65 85 35 46 - - -
22/10:30am - - - - - S 61 80 33 43 - - -
22/10:11am - - - - - SSW 37 67 20 36 - - -
22/10:09am - - - - - SSW 33 67 18 36 - - -
22/10:01am - - - - - S 35 70 19 38 - - -
22/10:00am - - - - - S 39 74 21 40 - - -
22/09:56am - - - - - S 46 74 25 40 - - -
22/09:36am - - - - - S 52 74 28 40 - - -
22/09:30am - - - - - S 48 74 26 40 - - -
22/09:28am - - - - - S 48 74 26 40 - - -
22/09:26am - - - - - S 52 74 28 40 - - -
22/09:18am - - - - - S 54 72 29 39 - - -
22/09:00am - - - - - S 44 61 24 33 - - -
22/08:30am - - - - - S 33 54 18 29 - - -
22/08:10am - - - - - S 44 63 24 34 - - -
22/08:00am - - - - - S 54 67 29 36 - - -
22/07:30am - - - - - SSE 52 72 28 39 - - -
22/07:25am - - - - - SSE 59 91 32 49 - - -
22/07:22am - - - - - S 69 96 37 52 - - -
22/07:08am - - - - - S 78 98 42 53 - - -
22/07:00am - - - - - S 74 89 40 48 - - -
22/06:39am - - - - - S 76 95 41 51 - - -
22/06:30am - - - - - S 83 95 45 51 - - -
22/06:00am - - - - - S 87 107 47 58 - - -
22/05:30am - - - - - S 76 98 41 53 - - -
22/05:04am - - - - - S 82 100 44 54 - - -
22/05:00am - - - - - S 85 100 46 54 - - -
22/04:34am - - - - - S 82 100 44 54 - - -
22/04:30am - - - - - S 82 96 44 52 - - -
22/04:00am - - - - - S 78 98 42 53 - - -
22/03:43am - - - - - S 76 95 41 51 - - -
22/03:30am - - - - - S 82 98 44 53 - - -
22/03:00am - - - - - S 82 106 44 57 - - -
22/02:30am - - - - - S 72 91 39 49 - - -
22/02:00am - - - - - SSE 74 93 40 50 - - -
22/01:30am - - - - - SSE 72 100 39 54 - - -
22/01:00am - - - - - S 78 106 42 57 - - -
22/12:30am - - - - - S 85 109 46 59 - - -
22/12:00am - - - - - S 91 111 49 60 - - -
 
Date/Time
EST
Tmp

°C
App
Tmp
°C
Dew
Point
°C
Rel
Hum
%
Delta-T

°C
Wind Press
QNH
hPa
Press
MSL
hPa
Rain
since
9 am
mm
Dir
 
Spd
km/h
Gust
km/h
Spd
kts
Gust
kts
21/11:30pm - - - - - S 95 117 51 63 - - -
21/11:00pm - - - - - S 87 111 47 60 - - -
21/10:30pm - - - - - S 95 117 51 63 - - -
21/10:18pm - - - - - S 89 113 48 61 - - -
21/10:00pm - - - - - S 89 106 48 57 - - -
21/09:30pm - - - - - S 91 109 49 59 - - -
21/09:00pm - - - - - S 93 115 50 62 - - -
21/08:34pm - - - - - S 93 111 50 60 - - -
21/08:30pm - - - - - S 95 109 51 59 - - -
21/08:18pm - - - - - S 87 106 47 57 - - -
21/08:12pm - - - - - S 91 106 49 57 - - -
21/08:00pm - - - - - S 104 124 56 67 - - -
21/07:30pm - - - - - S 95 115 51 62 - - -
21/07:00pm - - - - - S 96 119 52 64 - - -
21/06:33pm - - - - - S 91 113 49 61 - - -
21/06:30pm - - - - - S 93 107 50 58 - - -
21/06:00pm - - - - - S 91 113 49 61 - - -
21/05:30pm - - - - - S 87 106 47 57 - - -
21/05:00pm - - - - - S 96 119 52 64 - - -
21/04:30pm - - - - - S 100 120 54 65 - - -
21/04:00pm - - - - - S 95 122 51 66 - - -
21/03:30pm - - - - - S 102 120 55 65 - - -
21/03:02pm - - - - - S 96 120 52 65 - - -
21/03:00pm - - - - - S 95 111 51 60 - - -
21/02:30pm - - - - - S 102 124 55 67 - - -
21/02:00pm - - - - - S 95 115 51 62 - - -
21/01:30pm - - - - - S 96 120 52 65 - - -
21/01:00pm - - - - - S 100 122 54 66 - - -
21/12:30pm - - - - - S 96 120 52 65 - - -
21/12:00pm - - - - - S 96 117 52 63 - - -
21/11:30am - - - - - S 95 113 51 61 - - -
21/11:00am - - - - - S 91 117 49 63 - - -
21/10:30am - - - - - SSE 93 117 50 63 - - -
21/10:00am - - - - - SSE 93 124 50 67 - - -
21/09:30am - - - - - SSE 89 115 48 62 - - -
21/09:20am - - - - - S 83 111 45 60 - - -
21/09:19am - - - - - S 83 111 45 60 - - -
21/09:05am - - - - - S 96 135 52 73 - - -
21/09:00am - - - - - S 91 115 49 62 - - -
21/08:30am - - - - - S 85 107 46 58 - - -
21/08:00am - - - - - SSE 87 111 47 60 - - -
21/07:30am - - - - - S 95 117 51 63 - - -
21/07:00am - - - - - SSE 95 119 51 64 - - -
21/06:30am - - - - - SSE 85 107 46 58 - - -
21/06:00am - - - - - SSE 89 117 48 63 - - -
21/05:30am - - - - - SSE 91 117 49 63 - - -
21/05:00am - - - - - SSE 91 115 49 62 - - -
21/04:30am - - - - - SSE 93 115 50 62 - - -
21/04:00am - - - - - S 95 119 51 64 - - -
21/03:30am - - - - - S 96 119 52 64 - - -
21/03:00am - - - - - SSE 96 117 52 63 - - -
21/02:30am - - - - - SSE 93 115 50 62 - - -
21/02:00am - - - - - SSE 91 119 49 64 - - -
21/01:30am - - - - - SSE 93 119 50 64 - - -
21/01:00am - - - - - SSE 93 120 50 65 - - -
21/12:30am - - - - - SSE 89 113 48 61 - - -
21/12:17am - - - - - S 85 119 46 64 - - -
21/12:00am - - - - - S 100 120 54 65 - - -
 
Date/Time
EST
Tmp

°C
App
Tmp
°C
Dew
Point
°C
Rel
Hum
%
Delta-T

°C
Wind Press
QNH
hPa
Press
MSL
hPa
Rain
since
9 am
mm
Dir
 
Spd
km/h
Gust
km/h
Spd
kts
Gust
kts
20/11:30pm - - - - - S 95 117 51 63 - - -
20/11:00pm - - - - - S 98 119 53 64 - - -
20/10:30pm - - - - - S 91 113 49 61 - - -
20/10:04pm - - - - - S 91 109 49 59 - - -
20/10:00pm - - - - - S 93 109 50 59 - - -
20/09:30pm - - - - - SSE 87 111 47 60 - - -
20/09:01pm - - - - - S 85 104 46 56 - - -
20/09:00pm - - - - - S 87 104 47 56 - - -
20/08:30pm - - - - - S 83 106 45 57 - - -
20/08:00pm - - - - - SSE 96 115 52 62 - - -
20/07:30pm - - - - - SSE 91 113 49 61 - - -
20/07:00pm - - - - - SSE 95 115 51 62 - - -
20/06:30pm - - - - - SSE 93 119 50 64 - - -
20/06:10pm - - - - - SSE 91 132 49 71 - - -
20/06:00pm - - - - - SSE 89 111 48 60 - - -
20/05:30pm - - - - - SSE 95 119 51 64 - - -
20/05:00pm - - - - - SSE 93 117 50 63 - - -
20/04:30pm - - - - - S 95 120 51 65 - - -
20/04:00pm - - - - - S 93 113 50 61 - - -
20/03:30pm - - - - - SSE 85 109 46 59 - - -
20/03:00pm - - - - - SSE 80 107 43 58 - - -
20/02:30pm - - - - - SSE 80 117 43 63 - - -
20/02:25pm - - - - - SSE 82 117 44 63 - - -
20/02:00pm - - - - - S 76 96 41 52 - - -
20/01:30pm - - - - - SSE 74 98 40 53 - - -
20/01:08pm - - - - - S 82 113 44 61 - - -
20/01:00pm - - - - - S 80 95 43 51 - - -
20/12:39pm - - - - - S 83 102 45 55 - - -
20/12:30pm - - - - - S 83 98 45 53 - - -
20/12:06pm - - - - - S 78 96 42 52 - - -
20/12:00pm - - - - - S 78 91 42 49 - - -
20/11:30am - - - - - S 67 80 36 43 - - -
20/11:00am - - - - - S 67 83 36 45 - - -
20/10:30am - - - - - S 72 91 39 49 - - -
20/10:22am - - - - - S 65 83 35 45 - - -
20/10:00am - - - - - S 72 87 39 47 - - -
20/09:30am - - - - - S 72 98 39 53 - - -
20/09:29am - - - - - S 70 96 38 52 - - -
20/09:00am - - - - - SSE 61 74 33 40 - - -
20/08:34am - - - - - S 61 80 33 43 - - -
20/08:30am - - - - - S 65 82 35 44 - - -
20/08:03am - - - - - S 65 85 35 46 - - -
20/08:00am - - - - - S 63 78 34 42 - - -
20/07:30am - - - - - S 63 85 34 46 - - -
20/07:15am - - - - - S 67 85 36 46 - - -
20/07:00am - - - - - S 69 85 37 46 - - -
20/06:34am - - - - - S 67 87 36 47 - - -
20/06:30am - - - - - S 67 82 36 44 - - -
20/06:00am - - - - - S 69 78 37 42 - - -
20/05:48am - - - - - S 65 83 35 45 - - -
20/05:30am - - - - - S 72 83 39 45 - - -
20/05:00am - - - - - S 65 82 35 44 - - -
20/04:30am - - - - - S 61 80 33 43 - - -
20/04:18am - - - - - S 69 87 37 47 - - -
20/04:00am - - - - - S 70 82 38 44 - - -
20/03:32am - - - - - S 59 78 32 42 - - -
20/03:30am - - - - - S 61 78 33 42 - - -
20/03:00am - - - - - S 65 85 35 46 - - -
20/02:46am - - - - - S 65 83 35 45 - - -
20/02:30am - - - - - S 63 80 34 43 - - -
20/02:14am - - - - - S 67 85 36 46 - - -
20/02:00am - - - - - S 67 82 36 44 - - -
20/01:44am - - - - - S 69 87 37 47 - - -
20/01:30am - - - - - S 69 83 37 45 - - -
20/01:00am - - - - - S 69 80 37 43 - - -
20/12:30am - - - - - S 59 76 32 41 - - -
20/12:00am - - - - - S 65 80 35 43 - - -
 
Date/Time
EST
Tmp

°C
App
Tmp
°C
Dew
Point
°C
Rel
Hum
%
Delta-T

°C
Wind Press
QNH
hPa
Press
MSL
hPa
Rain
since
9 am
mm
Dir
 
Spd
km/h
Gust
km/h
Spd
kts
Gust
kts
19/11:30pm - - - - - S 57 76 31 41 - - -
19/11:22pm - - - - - S 59 78 32 42 - - -
19/11:00pm - - - - - S 61 76 33 41 - - -
19/10:30pm - - - - - S 63 74 34 40 - - -
19/10:00pm - - - - - S 61 74 33 40 - - -
19/09:30pm - - - - - S 59 72 32 39 - - -
19/09:00pm - - - - - S 50 69 27 37 - - -
19/08:49pm - - - - - S 52 70 28 38 - - -
19/08:30pm - - - - - S 56 72 30 39 - - -
19/08:00pm - - - - - S 61 74 33 40 - - -
19/07:30pm - - - - - S 63 74 34 40 - - -
19/07:00pm - - - - - S 61 72 33 39 - - -
19/06:30pm - - - - - S 67 78 36 42 - - -
19/06:00pm - - - - - S 69 80 37 43 - - -
19/05:30pm - - - - - S 65 76 35 41 - - -
19/05:00pm - - - - - S 67 78 36 42 - - -
19/04:30pm - - - - - S 65 80 35 43 - - -
19/04:00pm - - - - - S 61 72 33 39 - - -
19/03:30pm - - - - - S 57 65 31 35 - - -
19/03:00pm - - - - - S 54 67 29 36 - - -
19/02:30pm - - - - - S 52 63 28 34 - - -
19/02:00pm - - - - - S 54 65 29 35 - - -

Latest Capital City Observations: Canberra | Sydney | Melbourne | Brisbane | Adelaide | Perth | Hobart | Darwin

Other Formats:

Comma delimited format used in spreadsheet applications
http://www.bom.gov.au/fwo/IDN60901/IDN60901.95752.axf

JavaScript Object Notation format (JSON) in row-major order
http://www.bom.gov.au/fwo/IDN60901/IDN60901.95752.json